createdAt,value
2023-03-30T00:00:21.371Z,10.10
2023-03-30T00:02:50.699Z,10.83
2023-03-30T00:05:19.118Z,8.83
2023-03-30T00:07:46.984Z,10.23
2023-03-30T00:10:18.901Z,8.90
2023-03-30T00:12:53.030Z,11.30
2023-03-30T00:15:22.010Z,10.07
2023-03-30T00:17:49.289Z,9.80
2023-03-30T00:20:17.249Z,8.97
2023-03-30T00:22:45.640Z,9.73
2023-03-30T00:25:14.453Z,10.40
2023-03-30T00:27:41.999Z,9.30
2023-03-30T00:30:11.613Z,9.97
2023-03-30T00:32:39.025Z,11.10
2023-03-30T00:35:06.960Z,9.60
2023-03-30T00:37:37.407Z,10.47
2023-03-30T00:40:09.272Z,8.57
2023-03-30T00:42:37.071Z,8.83
2023-03-30T00:45:07.510Z,7.97
2023-03-30T00:47:41.075Z,8.47
2023-03-30T00:50:09.497Z,10.60
2023-03-30T00:52:37.365Z,11.23
2023-03-30T00:55:07.823Z,9.63
2023-03-30T00:57:37.012Z,9.00
2023-03-30T01:00:07.840Z,8.93
2023-03-30T01:02:39.521Z,9.20
2023-03-30T01:05:07.292Z,8.77
2023-03-30T01:07:34.544Z,9.47
2023-03-30T01:10:01.970Z,9.30
2023-03-30T01:12:29.957Z,8.77
2023-03-30T01:14:57.335Z,9.63
2023-03-30T01:17:42.435Z,12.90
2023-03-30T01:20:12.990Z,9.43
2023-03-30T01:23:02.043Z,9.67
2023-03-30T01:25:34.093Z,9.77
2023-03-30T01:28:24.309Z,10.77
2023-03-30T01:30:51.661Z,10.00
2023-03-30T01:33:19.276Z,11.93
2023-03-30T01:35:46.753Z,8.87
2023-03-30T01:38:32.822Z,9.37
2023-03-30T01:41:09.929Z,10.10
2023-03-30T01:43:53.571Z,12.80
2023-03-30T01:46:42.311Z,9.63
2023-03-30T01:49:29.986Z,10.20
2023-03-30T01:52:06.834Z,10.03
2023-03-30T01:54:39.989Z,10.23
2023-03-30T01:57:14.044Z,10.00
2023-03-30T01:59:44.733Z,14.50
2023-03-30T02:02:13.368Z,10.50
2023-03-30T02:04:45.650Z,9.60
2023-03-30T02:07:15.582Z,12.10
2023-03-30T02:09:44.208Z,10.87
2023-03-30T02:12:11.661Z,10.30
2023-03-30T02:14:39.731Z,12.53
2023-03-30T02:17:11.331Z,11.33
2023-03-30T02:19:38.737Z,12.33
2023-03-30T02:22:06.545Z,11.37
2023-03-30T02:24:34.420Z,11.50
2023-03-30T02:27:02.485Z,12.43
2023-03-30T02:29:30.504Z,11.57
2023-03-30T02:31:59.137Z,14.43
2023-03-30T02:34:45.742Z,12.47
2023-03-30T02:37:25.419Z,14.43
2023-03-30T02:40:14.544Z,13.53
2023-03-30T02:42:53.733Z,14.77
2023-03-30T02:45:27.465Z,16.60
2023-03-30T02:47:54.741Z,15.30
2023-03-30T02:50:29.588Z,17.30
2023-03-30T02:53:02.424Z,16.13
2023-03-30T02:55:37.885Z,16.07
2023-03-30T02:58:34.553Z,17.70
2023-03-30T03:01:12.664Z,14.93
2023-03-30T03:04:03.275Z,18.17
2023-03-30T03:06:38.509Z,14.87
2023-03-30T03:09:07.846Z,18.30
2023-03-30T03:11:36.250Z,17.80
2023-03-30T03:14:04.191Z,15.00
2023-03-30T03:16:33.967Z,15.57
2023-03-30T03:19:19.448Z,17.00
2023-03-30T03:21:49.636Z,18.63
2023-03-30T03:24:18.869Z,20.20
2023-03-30T03:27:04.860Z,19.47
2023-03-30T03:29:42.814Z,19.20
2023-03-30T03:32:11.031Z,18.13
2023-03-30T03:34:45.752Z,20.17
2023-03-30T03:37:14.251Z,17.20
2023-03-30T03:39:41.677Z,17.80
2023-03-30T03:42:12.298Z,16.93
2023-03-30T03:44:49.200Z,18.60
2023-03-30T03:47:16.801Z,19.17
2023-03-30T03:49:45.511Z,17.43
2023-03-30T03:52:12.939Z,17.07
2023-03-30T03:54:40.191Z,18.07
2023-03-30T03:57:07.857Z,14.87
2023-03-30T03:59:35.121Z,16.00
2023-03-30T04:02:02.431Z,17.50
2023-03-30T04:04:29.818Z,15.63
2023-03-30T04:06:57.086Z,16.17
2023-03-30T04:09:24.722Z,15.43
2023-03-30T04:12:10.493Z,13.13
2023-03-30T04:14:57.917Z,17.43
2023-03-30T04:17:58.362Z,16.57
2023-03-30T04:21:02.628Z,15.70
2023-03-30T04:23:40.152Z,14.23
2023-03-30T04:26:19.193Z,15.23
2023-03-30T04:28:49.024Z,15.60
2023-03-30T04:31:35.928Z,14.57
2023-03-30T04:34:21.897Z,15.87
2023-03-30T04:37:17.989Z,18.10
2023-03-30T04:40:14.647Z,17.07
2023-03-30T04:43:14.027Z,14.80
2023-03-30T04:46:00.075Z,15.90
2023-03-30T04:48:30.065Z,15.00
2023-03-30T04:51:29.538Z,15.63
2023-03-30T04:54:10.794Z,14.30
2023-03-30T04:57:00.796Z,16.20
2023-03-30T04:59:43.971Z,14.97
2023-03-30T05:02:42.341Z,14.30
2023-03-30T05:05:10.919Z,18.53
2023-03-30T05:07:57.280Z,17.87
2023-03-30T05:10:42.952Z,16.43
2023-03-30T05:13:29.010Z,17.33
2023-03-30T05:16:19.037Z,17.23
2023-03-30T05:18:51.441Z,17.07
2023-03-30T05:21:36.156Z,17.20
2023-03-30T05:24:15.669Z,16.03
2023-03-30T05:27:02.388Z,16.10
2023-03-30T05:29:58.716Z,16.67
2023-03-30T05:33:05.287Z,16.63
2023-03-30T05:35:51.975Z,16.23
2023-03-30T05:38:40.650Z,15.83
2023-03-30T05:41:28.103Z,16.47
2023-03-30T05:44:17.384Z,16.70
2023-03-30T05:46:53.609Z,15.47
2023-03-30T05:49:52.271Z,17.20
2023-03-30T05:52:28.725Z,15.80
2023-03-30T05:55:25.797Z,16.07
2023-03-30T05:58:11.788Z,16.33
2023-03-30T06:01:05.943Z,15.50
2023-03-30T06:03:39.319Z,15.87
2023-03-30T06:06:25.785Z,14.23
2023-03-30T06:08:53.738Z,16.70
2023-03-30T06:11:23.856Z,16.70
2023-03-30T06:14:04.178Z,14.63
2023-03-30T06:16:32.011Z,15.83
2023-03-30T06:19:00.740Z,15.43
2023-03-30T06:21:28.201Z,17.37
2023-03-30T06:24:14.248Z,16.27
2023-03-30T06:26:42.388Z,16.03
2023-03-30T06:29:09.887Z,16.07
2023-03-30T06:31:40.011Z,16.00
2023-03-30T06:34:26.061Z,16.87
2023-03-30T06:36:53.893Z,18.13
2023-03-30T06:39:23.606Z,13.87
2023-03-30T06:41:51.386Z,15.57
2023-03-30T06:44:37.265Z,17.80
2023-03-30T06:47:11.085Z,16.40
2023-03-30T06:49:38.530Z,15.70
2023-03-30T06:52:22.327Z,13.20
2023-03-30T06:54:49.938Z,13.30
2023-03-30T06:57:17.268Z,16.20
2023-03-30T06:59:44.553Z,15.43
2023-03-30T07:02:21.000Z,13.80
2023-03-30T07:04:52.110Z,15.80
2023-03-30T07:07:28.186Z,13.67
2023-03-30T07:09:55.807Z,14.00
2023-03-30T07:12:24.092Z,15.73
2023-03-30T07:15:10.635Z,14.70
2023-03-30T07:17:38.179Z,16.20
2023-03-30T07:20:06.391Z,13.60
2023-03-30T07:22:36.247Z,12.23
2023-03-30T07:25:04.381Z,14.07
2023-03-30T07:27:31.982Z,13.60
2023-03-30T07:30:10.236Z,12.60
2023-03-30T07:32:43.009Z,11.17
2023-03-30T07:35:10.579Z,11.50
2023-03-30T07:37:39.999Z,14.03
2023-03-30T07:40:09.049Z,12.53
2023-03-30T07:42:37.274Z,13.23
2023-03-30T07:45:05.312Z,14.80
2023-03-30T07:47:32.870Z,13.97
2023-03-30T07:50:00.793Z,13.07
2023-03-30T07:52:28.123Z,11.87
2023-03-30T07:55:01.051Z,11.03
2023-03-30T07:57:37.837Z,11.00
2023-03-30T08:00:06.053Z,11.90
2023-03-30T08:02:51.859Z,11.07
2023-03-30T08:05:21.241Z,13.10
2023-03-30T08:07:58.297Z,11.27
2023-03-30T08:10:31.283Z,13.83
2023-03-30T08:12:58.474Z,12.87
2023-03-30T08:15:26.552Z,11.47
2023-03-30T08:17:53.922Z,11.63
2023-03-30T08:20:21.182Z,12.37
2023-03-30T08:22:48.557Z,12.30
2023-03-30T08:25:15.734Z,11.37
2023-03-30T08:27:42.913Z,13.83
2023-03-30T08:30:13.110Z,13.20
2023-03-30T08:32:40.374Z,12.17
2023-03-30T08:35:07.832Z,10.50
2023-03-30T08:37:35.548Z,9.97
2023-03-30T08:40:03.509Z,11.63
2023-03-30T08:42:49.618Z,12.40
2023-03-30T08:45:18.357Z,11.53
2023-03-30T08:47:50.995Z,12.10
2023-03-30T08:50:31.265Z,12.83
2023-03-30T08:52:58.865Z,12.23
2023-03-30T08:55:58.686Z,12.13
2023-03-30T08:58:26.070Z,12.90
2023-03-30T09:00:53.244Z,12.73
2023-03-30T09:03:37.843Z,11.77
2023-03-30T09:06:10.781Z,14.57
2023-03-30T09:08:38.328Z,13.47
2023-03-30T09:11:07.970Z,14.53
2023-03-30T09:13:37.872Z,13.70
2023-03-30T09:16:24.241Z,16.37
2023-03-30T09:18:53.836Z,17.87
2023-03-30T09:21:23.704Z,17.53
2023-03-30T09:23:52.651Z,18.33
2023-03-30T09:26:20.301Z,16.07
2023-03-30T09:28:55.295Z,16.53
2023-03-30T09:31:37.393Z,16.77
2023-03-30T09:34:08.662Z,17.33
2023-03-30T09:36:49.133Z,19.00
2023-03-30T09:39:18.759Z,18.10
2023-03-30T09:42:12.255Z,16.87
2023-03-30T09:44:46.854Z,19.30
2023-03-30T09:47:36.565Z,20.17
2023-03-30T09:50:08.278Z,17.47
2023-03-30T09:52:40.489Z,19.77
2023-03-30T09:55:31.211Z,19.47
2023-03-30T09:58:12.611Z,19.77
2023-03-30T10:00:40.170Z,19.13
2023-03-30T10:03:08.603Z,18.87
2023-03-30T10:05:37.060Z,18.17
2023-03-30T10:08:19.530Z,21.90
2023-03-30T10:10:47.670Z,19.83
2023-03-30T10:13:16.273Z,21.50
2023-03-30T10:15:46.057Z,21.93
2023-03-30T10:18:24.834Z,19.93
2023-03-30T10:21:10.665Z,19.93
2023-03-30T10:23:43.265Z,19.13
2023-03-30T10:26:15.541Z,21.00
2023-03-30T10:28:52.562Z,22.63
2023-03-30T10:31:19.805Z,17.33
2023-03-30T10:33:47.969Z,18.03
2023-03-30T10:36:16.245Z,19.03
2023-03-30T10:38:44.122Z,19.70
2023-03-30T10:41:21.482Z,17.57
2023-03-30T10:43:49.950Z,16.27
2023-03-30T10:46:22.574Z,16.37
2023-03-30T10:49:00.568Z,17.60
2023-03-30T10:51:36.034Z,13.23
2023-03-30T10:54:22.169Z,12.10
2023-03-30T10:56:52.285Z,12.03
2023-03-30T10:59:34.698Z,10.70
2023-03-30T11:02:28.286Z,8.50
2023-03-30T11:05:04.521Z,9.63
2023-03-30T11:07:36.497Z,9.40
2023-03-30T11:10:06.589Z,9.93
2023-03-30T11:12:55.034Z,11.43
2023-03-30T11:15:26.896Z,8.33
2023-03-30T11:17:54.333Z,7.93
2023-03-30T11:20:27.416Z,10.50
2023-03-30T11:23:01.688Z,10.43
2023-03-30T11:25:34.062Z,10.30
2023-03-30T11:28:22.201Z,9.43
2023-03-30T11:30:52.814Z,8.03
2023-03-30T11:33:20.113Z,7.40
2023-03-30T11:35:54.959Z,9.60
2023-03-30T11:38:41.406Z,10.20
2023-03-30T11:41:16.252Z,7.97
2023-03-30T11:43:43.902Z,5.93
2023-03-30T11:46:23.539Z,5.17
2023-03-30T11:49:02.346Z,3.13
2023-03-30T11:51:41.511Z,3.40
2023-03-30T11:54:31.980Z,6.47
2023-03-30T11:57:19.699Z,3.90
2023-03-30T12:00:12.665Z,4.93
2023-03-30T12:02:39.932Z,4.20
2023-03-30T12:05:11.215Z,7.87
2023-03-30T12:07:50.779Z,5.53
2023-03-30T12:10:36.853Z,3.90
2023-03-30T12:13:04.300Z,5.13
2023-03-30T12:15:55.516Z,3.07
2023-03-30T12:18:37.914Z,4.97
2023-03-30T12:21:23.798Z,4.30
2023-03-30T12:24:16.501Z,4.33
2023-03-30T12:26:58.152Z,4.53
2023-03-30T12:30:05.364Z,5.17
2023-03-30T12:32:35.900Z,5.57
2023-03-30T12:35:23.160Z,7.83
2023-03-30T12:37:52.718Z,6.00
2023-03-30T12:40:22.650Z,5.17
2023-03-30T12:42:54.320Z,5.33
2023-03-30T12:45:26.030Z,5.10
2023-03-30T12:48:05.058Z,3.47
2023-03-30T12:50:38.660Z,5.07
2023-03-30T12:53:24.635Z,4.47
2023-03-30T12:55:53.529Z,4.00
2023-03-30T12:58:37.206Z,4.13
2023-03-30T13:01:12.233Z,3.13
2023-03-30T13:03:41.421Z,3.70
2023-03-30T13:06:15.348Z,3.57
2023-03-30T13:08:42.851Z,3.13
2023-03-30T13:11:10.090Z,4.27
2023-03-30T13:13:52.758Z,3.90
2023-03-30T13:16:38.801Z,3.30
2023-03-30T13:19:21.800Z,3.97
2023-03-30T13:21:51.477Z,4.87
2023-03-30T13:24:24.695Z,3.70
2023-03-30T13:26:53.968Z,3.27
2023-03-30T13:29:22.352Z,3.73
2023-03-30T13:32:07.401Z,3.57
2023-03-30T13:34:48.955Z,3.97
2023-03-30T13:37:52.343Z,3.10
2023-03-30T13:40:35.138Z,3.30
2023-03-30T13:43:05.961Z,2.77
2023-03-30T13:45:33.171Z,4.50
2023-03-30T13:48:09.712Z,2.73
2023-03-30T13:50:38.622Z,4.33
2023-03-30T13:53:09.939Z,3.53
2023-03-30T13:55:42.595Z,4.07
2023-03-30T13:58:19.360Z,4.63
2023-03-30T14:00:48.956Z,4.70
2023-03-30T14:03:31.555Z,3.40
2023-03-30T14:06:03.804Z,4.20
2023-03-30T14:08:41.722Z,3.40
2023-03-30T14:11:15.441Z,4.27
2023-03-30T14:13:43.325Z,4.47
2023-03-30T14:16:12.461Z,2.40
2023-03-30T14:18:39.772Z,3.27
2023-03-30T14:21:11.503Z,2.67
2023-03-30T14:23:41.182Z,2.90
2023-03-30T14:26:14.619Z,2.57
2023-03-30T14:28:44.778Z,3.60
2023-03-30T14:31:13.978Z,3.50
2023-03-30T14:33:41.859Z,2.70
2023-03-30T14:36:11.899Z,4.17
2023-03-30T14:38:40.740Z,3.03
2023-03-30T14:41:14.528Z,2.70
2023-03-30T14:43:42.105Z,2.07
2023-03-30T14:46:11.709Z,3.90
2023-03-30T14:48:44.725Z,5.50
2023-03-30T14:51:28.668Z,4.43
2023-03-30T14:53:57.685Z,2.40
2023-03-30T14:56:25.883Z,2.33
2023-03-30T14:58:54.701Z,1.80
2023-03-30T15:01:31.537Z,4.03
2023-03-30T15:04:19.100Z,4.30
2023-03-30T15:06:48.250Z,2.63
2023-03-30T15:09:17.503Z,4.03
2023-03-30T15:11:46.778Z,3.47
2023-03-30T15:14:17.137Z,3.70
2023-03-30T15:16:47.370Z,1.90
2023-03-30T15:19:21.141Z,3.30
2023-03-30T15:21:52.648Z,4.43
2023-03-30T15:24:22.625Z,2.97
2023-03-30T15:26:51.222Z,2.03
2023-03-30T15:29:19.658Z,2.63
2023-03-30T15:31:47.420Z,3.93
2023-03-30T15:34:16.374Z,3.23
2023-03-30T15:36:44.180Z,3.20
2023-03-30T15:39:21.460Z,4.47
2023-03-30T15:41:50.405Z,4.67
2023-03-30T15:44:21.315Z,3.40
2023-03-30T15:46:52.648Z,1.90
2023-03-30T15:49:22.466Z,2.70
2023-03-30T15:51:52.086Z,2.37
2023-03-30T15:54:34.507Z,2.87
2023-03-30T15:57:08.375Z,0.90
2023-03-30T15:59:42.082Z,1.10
2023-03-30T16:02:15.566Z,0.80
2023-03-30T16:04:42.987Z,1.00
2023-03-30T16:07:15.850Z,1.73
2023-03-30T16:09:43.042Z,0.93
2023-03-30T16:12:15.301Z,1.93
2023-03-30T16:14:42.729Z,1.30
2023-03-30T16:17:13.130Z,0.90
2023-03-30T16:19:41.318Z,1.83
2023-03-30T16:22:09.445Z,1.80
2023-03-30T16:24:36.845Z,9.60
2023-03-30T16:27:05.142Z,6.17
2023-03-30T16:29:32.889Z,3.53
2023-03-30T16:32:00.796Z,1.30
2023-03-30T16:34:28.280Z,1.33
2023-03-30T16:36:55.543Z,2.07
2023-03-30T16:39:24.648Z,2.77
2023-03-30T16:41:52.305Z,2.47
2023-03-30T16:44:21.018Z,1.40
2023-03-30T16:46:48.855Z,3.80
2023-03-30T16:49:26.496Z,4.20
2023-03-30T16:51:57.590Z,1.60
2023-03-30T16:54:32.179Z,3.87
2023-03-30T16:57:00.580Z,2.13
2023-03-30T16:59:31.438Z,2.70
2023-03-30T17:01:59.286Z,2.57
2023-03-30T17:04:26.900Z,2.53
2023-03-30T17:06:54.970Z,1.57
2023-03-30T17:09:22.823Z,2.60
2023-03-30T17:11:50.365Z,1.83
2023-03-30T17:14:17.816Z,1.43
2023-03-30T17:16:45.630Z,2.03
2023-03-30T17:19:13.789Z,2.37
2023-03-30T17:21:46.004Z,2.47
2023-03-30T17:24:15.201Z,1.00
2023-03-30T17:26:42.824Z,4.67
2023-03-30T17:29:10.382Z,2.43
2023-03-30T17:31:38.761Z,2.93
2023-03-30T17:34:07.061Z,1.73
2023-03-30T17:36:34.501Z,3.07
2023-03-30T17:39:05.168Z,3.90
2023-03-30T17:41:33.762Z,2.37
2023-03-30T17:44:01.150Z,3.23
2023-03-30T17:46:28.514Z,2.60
2023-03-30T17:49:14.485Z,2.33
2023-03-30T17:51:41.950Z,2.70
2023-03-30T17:54:09.153Z,2.10
2023-03-30T17:56:36.377Z,1.43
2023-03-30T17:59:03.990Z,1.60
2023-03-30T18:01:32.956Z,1.73
2023-03-30T18:04:01.618Z,1.30
2023-03-30T18:06:28.909Z,1.97
2023-03-30T18:08:56.150Z,2.20
2023-03-30T18:11:23.372Z,1.73
2023-03-30T18:13:53.565Z,1.30
2023-03-30T18:16:24.327Z,1.63
2023-03-30T18:18:51.687Z,2.67
2023-03-30T18:21:18.836Z,3.13
2023-03-30T18:23:46.068Z,1.67
2023-03-30T18:26:13.988Z,1.40
2023-03-30T18:28:43.840Z,2.10
2023-03-30T18:31:11.560Z,1.67
2023-03-30T18:33:39.636Z,1.40
2023-03-30T18:36:08.228Z,1.70
2023-03-30T18:38:35.775Z,1.87
2023-03-30T18:41:02.967Z,2.70
2023-03-30T18:43:30.384Z,2.70
2023-03-30T18:46:01.778Z,2.03
2023-03-30T18:48:29.420Z,1.97
2023-03-30T18:50:56.987Z,4.50
2023-03-30T18:53:25.762Z,2.13
2023-03-30T18:55:54.362Z,2.33
2023-03-30T18:58:26.259Z,1.80
2023-03-30T19:00:54.096Z,1.90
2023-03-30T19:03:22.173Z,1.70
2023-03-30T19:05:49.904Z,2.60
2023-03-30T19:08:24.261Z,2.03
2023-03-30T19:10:53.060Z,2.37
2023-03-30T19:13:21.560Z,1.77
2023-03-30T19:15:49.609Z,2.57
2023-03-30T19:18:18.315Z,3.40
2023-03-30T19:20:45.844Z,2.07
2023-03-30T19:23:14.950Z,4.53
2023-03-30T19:25:43.378Z,4.07
2023-03-30T19:28:29.781Z,2.10
2023-03-30T19:30:57.107Z,2.60
2023-03-30T19:33:24.406Z,2.03
2023-03-30T19:35:52.119Z,2.00
2023-03-30T19:38:19.619Z,2.57
2023-03-30T19:40:46.872Z,1.63
2023-03-30T19:43:14.447Z,1.80
2023-03-30T19:45:41.668Z,2.03
2023-03-30T19:48:09.841Z,1.90
2023-03-30T19:50:39.384Z,2.10
2023-03-30T19:53:07.174Z,2.77
2023-03-30T19:55:35.176Z,2.27
2023-03-30T19:58:02.460Z,1.83
2023-03-30T20:00:31.870Z,1.63
2023-03-30T20:02:59.380Z,3.97
2023-03-30T20:05:27.001Z,3.77
2023-03-30T20:07:54.244Z,3.63
2023-03-30T20:10:23.015Z,1.57
2023-03-30T20:12:51.201Z,2.53
2023-03-30T20:15:18.651Z,2.00
2023-03-30T20:17:46.694Z,2.37
2023-03-30T20:20:16.845Z,1.93
2023-03-30T20:22:44.971Z,2.27
2023-03-30T20:25:14.703Z,2.40
2023-03-30T20:27:42.009Z,2.20
2023-03-30T20:30:11.760Z,1.40
2023-03-30T20:32:39.235Z,2.57
2023-03-30T20:35:07.563Z,3.43
2023-03-30T20:37:34.950Z,2.13
2023-03-30T20:40:07.245Z,2.07
2023-03-30T20:42:34.615Z,2.13
2023-03-30T20:45:01.979Z,3.30
2023-03-30T20:47:30.953Z,1.57
2023-03-30T20:49:58.917Z,1.40
2023-03-30T20:52:26.789Z,1.00
2023-03-30T20:54:54.337Z,1.93
2023-03-30T20:57:22.082Z,1.60
2023-03-30T20:59:49.957Z,1.70
2023-03-30T21:02:17.477Z,1.77
2023-03-30T21:04:45.255Z,1.50
2023-03-30T21:07:12.907Z,2.23
2023-03-30T21:09:40.997Z,4.67
2023-03-30T21:12:09.635Z,2.70
2023-03-30T21:14:36.971Z,1.80
2023-03-30T21:17:04.332Z,2.10
2023-03-30T21:19:31.931Z,5.33
2023-03-30T21:22:00.266Z,2.50
2023-03-30T21:24:28.142Z,1.90
2023-03-30T21:26:55.403Z,1.83
2023-03-30T21:29:23.196Z,3.77
2023-03-30T21:31:50.956Z,2.60
2023-03-30T21:34:19.092Z,1.90
2023-03-30T21:36:46.988Z,2.50
2023-03-30T21:39:14.342Z,1.83
2023-03-30T21:41:41.880Z,2.20
2023-03-30T21:44:09.058Z,2.83
2023-03-30T21:46:36.357Z,2.40
2023-03-30T21:49:03.755Z,1.63
2023-03-30T21:51:31.720Z,1.60
2023-03-30T21:53:59.577Z,1.83
2023-03-30T21:56:29.069Z,3.20
2023-03-30T21:58:56.816Z,1.40
2023-03-30T22:01:24.448Z,2.30
2023-03-30T22:03:52.304Z,2.80
2023-03-30T22:06:20.719Z,2.87
2023-03-30T22:08:48.327Z,2.77
2023-03-30T22:11:16.858Z,3.37
2023-03-30T22:13:46.165Z,3.57
2023-03-30T22:16:16.875Z,1.33
2023-03-30T22:18:44.327Z,2.70
2023-03-30T22:21:17.114Z,2.53
2023-03-30T22:23:44.622Z,2.03
2023-03-30T22:26:12.507Z,4.83
2023-03-30T22:28:39.845Z,2.00
2023-03-30T22:31:11.078Z,1.43
2023-03-30T22:33:38.534Z,2.83
2023-03-30T22:36:07.177Z,1.90
2023-03-30T22:38:34.800Z,3.03
2023-03-30T22:41:06.549Z,3.73
2023-03-30T22:43:34.966Z,2.27
2023-03-30T22:46:02.313Z,2.67
2023-03-30T22:48:29.613Z,1.70
2023-03-30T22:50:58.569Z,2.67
2023-03-30T22:53:26.004Z,3.47
2023-03-30T22:55:53.158Z,1.67
2023-03-30T22:58:20.481Z,2.27
2023-03-30T23:00:47.648Z,3.23
2023-03-30T23:03:15.008Z,3.37
2023-03-30T23:05:43.310Z,1.30
2023-03-30T23:08:12.197Z,1.47
2023-03-30T23:10:42.064Z,4.03
2023-03-30T23:13:09.284Z,3.90
2023-03-30T23:15:36.421Z,2.23
2023-03-30T23:18:03.808Z,2.10
2023-03-30T23:20:31.064Z,3.50
2023-03-30T23:22:58.335Z,2.20
2023-03-30T23:25:26.571Z,2.57
2023-03-30T23:27:53.727Z,1.33
2023-03-30T23:30:21.454Z,2.87
2023-03-30T23:32:48.612Z,2.20
2023-03-30T23:35:16.070Z,1.97
2023-03-30T23:37:45.435Z,2.27
2023-03-30T23:40:13.611Z,4.13
2023-03-30T23:42:40.825Z,2.57
2023-03-30T23:45:08.536Z,3.03
2023-03-30T23:47:35.884Z,3.57
2023-03-30T23:50:03.328Z,1.83
2023-03-30T23:52:30.837Z,4.07
2023-03-30T23:55:01.902Z,3.10
2023-03-30T23:57:29.513Z,2.40
2023-03-30T23:59:56.747Z,3.57
